Time;durP1;ratioP1;P1;durP2;ratioP2;P2;SDS_P1;SDS_P2;PMS_P1;PMS_P2;Temp;Humidity;BMP_temperature;BMP_pressure;BME280_temperature;BME280_humidity;BME280_pressure;Samples;Min_cycle;Max_cycle;Signal;HPM_P1;HPM_P2
2023/03/27 00:01:22;;;;;;;7.88;4.32;;;;;;;10.70;42.46;94237.81;4971101;28;20046;-77
2023/03/27 00:03:49;;;;;;;8.65;4.63;;;;;;;9.76;43.93;94219.69;4989755;28;20146;-77
2023/03/27 00:06:16;;;;;;;13.43;5.65;;;;;;;10.15;43.81;94226.38;4971130;28;20090;-78
2023/03/27 00:08:46;;;;;;;8.88;4.32;;;;;;;10.18;43.48;94194.84;4971058;28;20405;-77
2023/03/27 00:11:12;;;;;;;8.98;3.90;;;;;;;9.74;43.36;94109.84;4971000;28;20034;-78
2023/03/27 00:13:38;;;;;;;9.68;3.97;;;;;;;10.23;42.90;94165.59;4989492;28;20567;-78
2023/03/27 00:16:04;;;;;;;9.20;4.40;;;;;;;10.05;42.84;94177.84;4989490;28;20073;-77
2023/03/27 00:18:31;;;;;;;11.85;4.60;;;;;;;10.21;42.70;94167.75;4969443;28;20073;-78
2023/03/27 00:21:01;;;;;;;8.13;4.35;;;;;;;10.16;43.29;94151.13;4968613;28;20034;-78
2023/03/27 00:23:31;;;;;;;9.50;5.03;;;;;;;9.98;42.91;94195.97;4969414;28;20062;-78
2023/03/27 00:25:57;;;;;;;9.50;4.43;;;;;;;10.64;42.60;94239.00;4971081;28;20781;-77
2023/03/27 00:28:26;;;;;;;11.57;4.97;;;;;;;10.63;42.48;94200.31;4969032;28;20054;-77
2023/03/27 00:30:53;;;;;;;16.83;5.10;;;;;;;9.79;42.89;94097.28;4971356;28;20065;-78
2023/03/27 00:33:19;;;;;;;9.13;4.68;;;;;;;10.21;43.04;94190.81;4971601;28;20030;-78
2023/03/27 00:35:46;;;;;;;12.55;4.57;;;;;;;10.32;44.08;94211.53;4976252;28;20034;-77
2023/03/27 00:38:12;;;;;;;10.85;4.63;;;;;;;10.44;43.53;94203.09;4986917;28;20074;-78
2023/03/27 00:40:38;;;;;;;9.25;4.40;;;;;;;10.40;43.96;94213.47;4988951;28;20030;-78
2023/03/27 00:43:19;;;;;;;13.13;4.60;;;;;;;10.17;44.03;94213.63;4989212;28;20025;-78
2023/03/27 00:45:45;;;;;;;11.15;4.30;;;;;;;9.94;43.69;94146.53;4971687;28;20487;-78
2023/03/27 00:48:12;;;;;;;11.70;4.57;;;;;;;10.23;44.50;94181.47;4968032;28;20121;-78
2023/03/27 00:50:41;;;;;;;9.73;4.18;;;;;;;10.39;44.25;94169.50;4985089;28;20031;-78
2023/03/27 00:53:12;;;;;;;9.95;4.28;;;;;;;10.61;44.24;94178.59;4989234;28;20461;-77
2023/03/27 00:55:41;;;;;;;10.03;4.67;;;;;;;10.21;44.32;94138.63;4989324;28;20084;-78
2023/03/27 00:58:12;;;;;;;9.32;4.57;;;;;;;10.41;43.94;94177.94;4983638;28;20194;-77
2023/03/27 01:00:38;;;;;;;13.15;4.93;;;;;;;10.01;45.09;94139.75;4969351;28;20031;-78
2023/03/27 01:03:06;;;;;;;12.05;5.15;;;;;;;10.58;44.40;94200.41;4976208;28;20100;-78
2023/03/27 01:05:33;;;;;;;12.52;5.10;;;;;;;10.08;44.14;94116.31;4988302;28;20503;-78
2023/03/27 01:07:59;;;;;;;8.43;4.32;;;;;;;10.15;44.62;94186.66;4989029;28;20239;-77
2023/03/27 01:10:51;;;;;;;8.27;4.30;;;;;;;9.79;44.96;94099.94;4968143;28;20133;-78
2023/03/27 01:13:31;;;;;;;6.18;3.00;;;;;;;9.98;44.72;94132.41;4984223;28;20029;-77
2023/03/27 01:16:13;;;;;;;5.75;2.85;;;;;;;9.97;44.86;94177.72;4975008;28;20565;-78
2023/03/27 01:18:49;;;;;;;8.15;3.70;;;;;;;9.58;45.00;94151.69;4955358;28;20038;-77
2023/03/27 01:22:00;;;;;;;8.45;3.60;;;;;;;10.00;44.60;94161.22;4991032;28;20030;-78
2023/03/27 01:24:46;;;;;;;10.13;3.33;;;;;;;10.24;44.75;94147.81;4960853;28;20134;-78
2023/03/27 01:27:36;;;;;;;8.10;4.05;;;;;;;10.38;44.07;94152.03;4986944;28;20031;-78
2023/03/27 01:30:08;;;;;;;8.13;3.60;;;;;;;10.48;43.90;94132.47;5002166;28;20034;-77
2023/03/27 01:32:33;;;;;;;;;;;;;;;10.62;43.65;94141.19;4985933;28;20113;-79
2023/03/27 01:35:35;;;;;;;9.63;3.90;;;;;;;10.55;43.63;94158.59;4992164;28;20016;-78
2023/03/27 01:38:27;;;;;;;8.65;3.47;;;;;;;10.32;44.45;94149.78;4970539;28;20061;-78
2023/03/27 01:41:04;;;;;;;7.60;4.10;;;;;;;9.95;45.35;94153.41;4989177;28;20426;-78
2023/03/27 01:43:38;;;;;;;11.60;3.65;;;;;;;10.21;45.17;94119.28;4974278;28;20038;-77
2023/03/27 01:46:15;;;;;;;9.63;4.15;;;;;;;10.23;44.73;94117.09;4957093;28;20413;-78
2023/03/27 01:48:59;;;;;;;6.85;3.60;;;;;;;10.30;44.95;94138.69;4974811;28;20022;-78
2023/03/27 01:51:55;;;;;;;10.48;4.90;;;;;;;10.04;44.73;94059.72;4991529;28;20677;-77
2023/03/27 01:54:44;;;;;;;10.40;4.88;;;;;;;10.32;45.47;94107.38;4984663;28;20039;-76
2023/03/27 01:57:23;;;;;;;10.05;5.00;;;;;;;10.26;45.44;94077.56;4966877;28;20045;-76
2023/03/27 02:00:16;;;;;;;19.52;5.72;;;;;;;10.35;45.10;94128.00;4983927;28;20042;-76
2023/03/27 02:02:46;;;;;;;15.23;6.07;;;;;;;10.21;45.96;94076.88;4993016;28;20034;-76
2023/03/27 02:05:25;;;;;;;15.13;5.00;;;;;;;10.55;45.38;94126.78;4992778;28;20109;-76
2023/03/27 02:07:56;;;;;;;12.68;6.20;;;;;;;10.68;45.65;94121.44;4972121;28;20031;-76
2023/03/27 02:10:30;;;;;;;15.93;7.00;;;;;;;10.33;45.51;94123.00;4987687;28;20097;-76
2023/03/27 02:13:02;;;;;;;14.55;6.93;;;;;;;10.38;45.29;94114.91;4975355;28;20493;-76
2023/03/27 02:15:34;;;;;;;24.30;10.30;;;;;;;10.18;46.18;94066.88;4993871;28;20048;-76
2023/03/27 02:18:08;;;;;;;19.38;9.65;;;;;;;10.35;46.56;94112.09;4992373;28;20659;-76
2023/03/27 02:20:36;;;;;;;21.90;9.88;;;;;;;9.11;46.80;93909.41;4981166;28;20092;-76
2023/03/27 02:23:02;;;;;;;16.48;8.68;;;;;;;10.42;46.59;94075.38;4991141;28;20124;-76
2023/03/27 02:25:33;;;;;;;26.88;9.15;;;;;;;10.37;46.61;94060.38;4983467;28;20068;-76
2023/03/27 02:28:17;;;;;;;;;;;;;;;10.58;46.02;94086.41;4972269;28;20121;-76
2023/03/27 02:31:16;;;;;;;22.08;9.15;;;;;;;10.55;45.91;94071.88;4985650;28;19968;-75
2023/03/27 02:34:00;;;;;;;23.40;9.10;;;;;;;10.62;46.16;94080.22;4974387;28;20052;-76
2023/03/27 02:36:56;;;;;;;28.38;9.75;;;;;;;10.34;46.43;94074.22;4987072;28;20390;-76
2023/03/27 02:39:57;;;;;;;24.77;9.77;;;;;;;10.41;46.86;94058.69;4988247;28;20046;-76
2023/03/27 02:42:51;;;;;;;20.23;10.00;;;;;;;10.39;47.12;94070.66;4975290;28;20034;-76
2023/03/27 02:45:39;;;;;;;24.42;10.85;;;;;;;10.33;47.76;94042.69;4992452;28;20053;-76
2023/03/27 02:48:13;;;;;;;24.10;10.35;;;;;;;10.12;47.24;94013.19;4971676;28;20030;-76
2023/03/27 02:50:47;;;;;;;19.65;9.88;;;;;;;10.33;47.49;94034.75;4982535;28;20117;-76
2023/03/27 02:53:16;;;;;;;21.33;10.25;;;;;;;10.35;47.65;94014.81;4992152;28;20030;-75
2023/03/27 02:55:48;;;;;;;20.35;10.35;;;;;;;10.35;48.01;94024.63;4984292;28;20450;-75
2023/03/27 02:58:18;;;;;;;25.38;10.52;;;;;;;10.26;48.11;94013.97;4969857;28;20026;-75
2023/03/27 03:00:47;;;;;;;25.58;10.77;;;;;;;9.66;48.63;93958.56;4992639;28;20026;-75
2023/03/27 03:03:31;;;;;;;28.10;10.82;;;;;;;10.10;48.35;94025.16;4982462;28;20070;-76
2023/03/27 03:05:57;;;;;;;26.48;11.00;;;;;;;9.95;48.84;94031.56;4984998;28;20022;-75
2023/03/27 03:08:23;;;;;;;28.90;11.00;;;;;;;9.92;48.65;94008.31;4972782;28;20105;-76
2023/03/27 03:10:48;;;;;;;27.85;11.50;;;;;;;10.13;48.54;94016.63;4986647;28;20026;-76
2023/03/27 03:13:16;;;;;;;31.80;10.88;;;;;;;9.81;48.98;93935.47;4987984;28;20534;-75
2023/03/27 03:15:42;;;;;;;22.90;10.65;;;;;;;9.82;48.96;93974.13;4992828;28;20450;-76
2023/03/27 03:18:07;;;;;;;22.60;9.38;;;;;;;9.87;48.48;93984.59;4991602;28;20145;-75
2023/03/27 03:20:34;;;;;;;20.45;10.40;;;;;;;8.94;49.41;93911.84;4974110;28;20061;-75
2023/03/27 03:23:00;;;;;;;25.15;10.90;;;;;;;9.29;49.91;93985.25;4982351;28;20027;-75
2023/03/27 03:25:25;;;;;;;27.17;11.32;;;;;;;9.42;49.51;93973.88;4990303;28;20444;-75
2023/03/27 03:27:57;;;;;;;21.17;10.77;;;;;;;9.51;49.48;93977.41;4991691;28;20087;-75
2023/03/27 03:30:27;;;;;;;26.25;9.85;;;;;;;9.64;49.19;93965.22;4970629;28;20061;-74
2023/03/27 03:32:53;;;;;;;25.17;10.75;;;;;;;9.76;48.88;93970.03;4989420;28;20026;-75
2023/03/27 03:35:21;;;;;;;26.60;10.40;;;;;;;9.62;48.82;93956.78;4973624;28;20385;-75
2023/03/27 03:37:49;;;;;;;22.35;10.15;;;;;;;9.78;49.40;93959.88;4990774;28;20050;-75
2023/03/27 03:40:15;;;;;;;30.73;10.35;;;;;;;9.45;48.84;93954.75;4983429;28;20109;-75
2023/03/27 03:42:49;;;;;;;27.92;10.13;;;;;;;9.70;48.74;93950.78;4989403;28;20030;-75
2023/03/27 03:45:16;;;;;;;41.28;11.70;;;;;;;9.02;48.61;93843.19;4990832;28;20084;-75
2023/03/27 03:47:43;;;;;;;22.23;10.48;;;;;;;9.63;49.10;93921.28;4988869;28;20037;-75
2023/03/27 03:50:09;;;;;;;28.73;10.88;;;;;;;9.60;48.90;93892.78;4969652;28;20042;-75
2023/03/27 03:52:36;;;;;;;23.98;10.48;;;;;;;8.94;49.05;93923.19;4965533;28;20057;-75
2023/03/27 03:55:03;;;;;;;27.85;10.10;;;;;;;8.60;49.11;93902.44;4990378;28;20041;-75
2023/03/27 03:57:29;;;;;;;22.27;8.82;;;;;;;8.59;50.64;93974.84;4973338;28;20444;-75
2023/03/27 03:59:56;;;;;;;21.05;8.63;;;;;;;8.56;49.35;93900.63;4990825;28;20030;-75
2023/03/27 04:02:28;;;;;;;30.00;9.63;;;;;;;8.89;49.53;93958.47;4979928;28;20155;-75
2023/03/27 04:04:55;;;;;;;22.67;8.70;;;;;;;8.60;49.32;93888.44;4977532;28;20339;-76
2023/03/27 04:07:22;;;;;;;18.60;8.73;;;;;;;9.08;48.44;93931.91;4972276;28;20030;-76
2023/03/27 04:09:49;;;;;;;29.25;9.95;;;;;;;9.11;48.80;93906.75;4984612;28;20133;-76
2023/03/27 04:12:14;;;;;;;24.75;10.15;;;;;;;9.18;49.51;93942.31;4985437;28;20065;-76
2023/03/27 04:14:40;;;;;;;22.83;9.68;;;;;;;8.96;49.79;93960.72;4984010;28;20022;-76
2023/03/27 04:17:05;;;;;;;22.23;9.23;;;;;;;9.03;50.18;93929.38;4967751;28;20148;-76
2023/03/27 04:19:30;;;;;;;32.75;10.05;;;;;;;8.78;50.49;93903.41;4982168;28;20555;-76
2023/03/27 04:21:57;;;;;;;27.95;11.00;;;;;;;8.99;51.04;93951.44;4967333;28;20034;-76
2023/03/27 04:24:23;;;;;;;32.22;10.27;;;;;;;8.92;50.61;93927.22;4983595;28;20034;-76
2023/03/27 04:26:50;;;;;;;32.05;11.88;;;;;;;8.58;50.28;93840.38;4985192;28;20057;-76
2023/03/27 04:29:15;;;;;;;31.67;10.00;;;;;;;8.50;50.29;93865.59;4983999;28;20053;-77
2023/03/27 04:31:45;;;;;;;22.60;10.48;;;;;;;8.37;50.57;93840.75;4990599;28;20026;-76
2023/03/27 04:34:11;;;;;;;25.08;9.75;;;;;;;9.24;50.29;93943.78;4975989;28;20112;-76
2023/03/27 04:36:36;;;;;;;29.55;10.68;;;;;;;9.25;50.66;93963.88;4963396;28;20046;-77
2023/03/27 04:39:02;;;;;;;35.42;11.43;;;;;;;8.98;50.38;93889.81;4976828;28;20038;-76
2023/03/27 04:41:28;;;;;;;36.33;11.13;;;;;;;8.36;50.10;93812.75;4980099;28;20038;-76
2023/03/27 04:43:54;;;;;;;30.25;10.38;;;;;;;9.11;50.60;93896.97;4984411;28;20057;-76
2023/03/27 04:46:20;;;;;;;26.05;10.23;;;;;;;9.14;51.19;93951.13;4983175;28;20074;-76
2023/03/27 04:48:45;;;;;;;25.65;10.38;;;;;;;9.27;51.44;93939.78;4965893;28;20157;-77
2023/03/27 04:51:11;;;;;;;29.67;10.38;;;;;;;8.49;51.19;93850.81;4966131;28;20406;-76
2023/03/27 04:53:37;;;;;;;25.42;9.70;;;;;;;8.57;51.08;93834.28;4984388;28;20034;-78
2023/03/27 04:56:04;;;;;;;25.08;10.25;;;;;;;8.93;50.73;93852.09;4985967;28;20118;-77
2023/03/27 04:58:30;;;;;;;24.85;10.18;;;;;;;9.04;50.60;93919.59;4989734;28;20027;-78
2023/03/27 05:00:55;;;;;;;24.00;10.15;;;;;;;8.89;50.74;93863.28;4973358;28;20080;-75
2023/03/27 05:03:24;;;;;;;30.35;9.65;;;;;;;9.28;52.04;93949.28;4988074;28;20042;-76
2023/03/27 05:05:52;;;;;;;144.48;16.88;;;;;;;8.89;51.42;93862.50;4982351;28;20781;-79
2023/03/27 05:08:18;;;;;;;29.13;9.70;;;;;;;9.38;50.97;93898.81;4969392;28;20081;-79
2023/03/27 05:10:44;;;;;;;29.13;10.63;;;;;;;9.45;50.93;93904.50;4986619;28;20042;-78
2023/03/27 05:13:09;;;;;;;33.47;11.45;;;;;;;9.07;50.35;93864.25;4965171;28;20196;-78
2023/03/27 05:15:38;;;;;;;23.40;10.43;;;;;;;9.34;50.25;93891.75;4979685;28;20160;-79
2023/03/27 05:18:05;;;;;;;30.05;10.48;;;;;;;9.44;50.04;93876.44;4971366;28;20065;-79
2023/03/27 05:20:30;;;;;;;33.45;12.40;;;;;;;9.49;49.65;93886.91;4964171;28;20790;-79
2023/03/27 05:22:56;;;;;;;38.53;12.80;;;;;;;8.72;50.81;93833.22;4963950;28;20038;-79
2023/03/27 05:25:23;;;;;;;26.15;10.02;;;;;;;8.99;49.77;93850.94;4945222;28;20038;-78
2023/03/27 05:27:50;;;;;;;30.63;10.98;;;;;;;9.48;49.30;93852.81;4965716;28;20054;-79
2023/03/27 05:30:18;;;;;;;26.73;9.73;;;;;;;9.19;49.37;93869.03;4967355;28;20650;-79
2023/03/27 05:32:47;;;;;;;29.75;10.98;;;;;;;8.79;49.76;93743.72;4982921;28;21326;-78
2023/03/27 05:35:16;;;;;;;25.60;10.20;;;;;;;9.52;49.15;93820.19;4966356;28;20066;-77
2023/03/27 05:37:46;;;;;;;28.10;9.52;;;;;;;8.91;48.53;93685.84;4983651;28;20076;-77
2023/03/27 05:40:15;;;;;;;29.17;9.80;;;;;;;9.68;48.20;93776.41;4984264;28;20398;-79
2023/03/27 05:42:44;;;;;;;26.30;10.13;;;;;;;10.02;48.03;93775.81;4980562;28;20073;-79
2023/03/27 05:45:10;;;;;;;23.73;11.20;;;;;;;10.08;47.71;93795.78;4965612;28;20042;-78
2023/03/27 05:47:47;;;;;;;26.38;9.60;;;;;;;9.75;47.97;93722.22;4979531;28;20038;-79
2023/03/27 05:50:13;;;;;;;23.08;9.50;;;;;;;10.26;46.77;93770.19;4987688;28;20858;-79
2023/03/27 05:52:39;;;;;;;25.10;10.23;;;;;;;10.37;45.80;93742.34;4966754;28;20113;-79
2023/03/27 05:55:06;;;;;;;25.50;9.95;;;;;;;10.55;46.41;93718.53;4967599;28;20615;-78
2023/03/27 05:57:35;;;;;;;17.55;7.65;;;;;;;10.43;44.46;93687.34;4966536;28;20046;-78
2023/03/27 06:00:00;;;;;;;20.83;8.02;;;;;;;10.70;45.30;93680.97;4983177;28;20034;-78
2023/03/27 06:02:26;;;;;;;19.73;7.90;;;;;;;10.94;46.03;93707.06;4981687;28;20088;-78
2023/03/27 06:04:52;;;;;;;18.63;6.35;;;;;;;11.35;45.45;93707.41;4972518;28;20141;-77
2023/03/27 06:07:19;;;;;;;14.38;5.13;;;;;;;10.91;44.40;93593.66;4980279;28;20038;-76
2023/03/27 06:09:45;;;;;;;18.58;5.63;;;;;;;11.48;43.02;93681.78;4959939;28;20040;-78
2023/03/27 06:12:11;;;;;;;15.25;5.07;;;;;;;11.20;42.29;93629.06;4965036;28;20508;-80
2023/03/27 06:14:37;;;;;;;14.13;5.53;;;;;;;11.25;43.69;93606.88;4980748;28;20038;-77
2023/03/27 06:17:02;;;;;;;12.82;4.90;;;;;;;11.38;43.51;93629.00;4989110;28;20034;-80
2023/03/27 06:19:27;;;;;;;15.93;4.47;;;;;;;11.60;43.06;93637.53;4980916;28;20303;-78
2023/03/27 06:21:53;;;;;;;22.50;5.45;;;;;;;12.05;41.14;93679.66;4979315;28;20068;-79
2023/03/27 06:24:18;;;;;;;17.27;5.60;;;;;;;11.52;41.85;93674.72;4961910;28;20455;-79
2023/03/27 06:26:44;;;;;;;17.48;5.72;;;;;;;11.70;42.07;93641.75;4963807;28;20052;-79
2023/03/27 06:29:09;;;;;;;10.85;4.15;;;;;;;11.57;43.25;93627.56;4978638;28;20133;-77
2023/03/27 06:31:35;;;;;;;11.30;3.50;;;;;;;11.42;42.30;93648.53;4981586;28;20135;-79
2023/03/27 06:34:00;;;;;;;9.32;4.82;;;;;;;11.10;41.85;93631.22;4962158;28;20049;-78
2023/03/27 06:36:26;;;;;;;9.20;4.63;;;;;;;11.45;41.82;93629.31;4982979;28;20132;-78
2023/03/27 06:38:53;;;;;;;9.20;3.17;;;;;;;11.08;43.21;93583.78;4984107;28;20459;-77
2023/03/27 06:41:18;;;;;;;16.95;4.03;;;;;;;10.98;43.74;93552.31;4966095;28;20034;-78
2023/03/27 06:43:44;;;;;;;22.25;3.40;;;;;;;10.98;43.81;93554.97;4963569;28;20684;-77
2023/03/27 06:46:09;;;;;;;6.50;2.72;;;;;;;11.76;43.46;93648.47;4971374;28;20485;-81
2023/03/27 06:48:35;;;;;;;7.28;2.33;;;;;;;11.58;43.81;93618.50;4964050;28;20061;-77
2023/03/27 06:51:00;;;;;;;8.50;2.95;;;;;;;11.90;44.36;93694.19;4963273;28;20109;-83
2023/03/27 06:53:26;;;;;;;13.13;3.78;;;;;;;12.20;45.41;93694.28;4967638;28;20038;-81
2023/03/27 06:55:52;;;;;;;14.05;4.05;;;;;;;10.79;44.15;93446.56;4960504;28;20615;-81
2023/03/27 06:58:17;;;;;;;5.13;2.63;;;;;;;12.53;43.61;93681.91;4968847;28;20046;-81
2023/03/27 07:00:44;;;;;;;6.35;3.35;;;;;;;12.33;42.64;93653.41;4968468;28;20038;-83
2023/03/27 07:03:10;;;;;;;12.43;4.18;;;;;;;12.19;43.13;93632.38;4968073;28;20129;-83
2023/03/27 07:05:39;;;;;;;12.77;4.20;;;;;;;12.32;42.67;93647.31;4955258;28;20034;-83
2023/03/27 07:08:13;;;;;;;8.13;2.70;;;;;;;12.72;42.46;93684.94;4989169;28;20148;-82
2023/03/27 07:10:39;;;;;;;5.75;3.55;;;;;;;12.91;41.86;93697.78;4975820;28;20034;-80
2023/03/27 07:13:11;;;;;;;9.93;3.88;;;;;;;12.30;42.39;93592.91;4964511;28;20050;-80
2023/03/27 07:15:37;;;;;;;16.88;3.42;;;;;;;12.67;43.12;93649.75;4979872;28;20050;-78
2023/03/27 07:18:06;;;;;;;5.82;3.20;;;;;;;12.63;42.34;93604.41;4966274;28;20065;-79
2023/03/27 07:20:33;;;;;;;6.65;3.28;;;;;;;13.18;41.57;93651.31;4974643;28;20096;-79
2023/03/27 07:23:00;;;;;;;9.10;3.40;;;;;;;13.41;42.17;93683.69;4964992;28;20034;-79
2023/03/27 07:25:35;;;;;;;10.20;4.38;;;;;;;13.12;42.05;93610.75;4981489;28;20037;-78
2023/03/27 07:28:09;;;;;;;6.82;3.85;;;;;;;13.45;41.68;93637.41;4981771;28;20034;-79
2023/03/27 07:30:35;;;;;;;10.55;3.83;;;;;;;13.03;41.74;93570.16;4964666;28;20803;-78
2023/03/27 07:33:01;;;;;;;9.63;3.38;;;;;;;13.08;41.33;93575.25;4979253;28;20038;-79
2023/03/27 07:35:27;;;;;;;11.05;4.38;;;;;;;13.85;40.84;93656.28;4983411;28;20053;-78
2023/03/27 07:37:53;;;;;;;6.43;3.97;;;;;;;13.84;40.70;93625.41;4983541;28;20054;-78
2023/03/27 07:40:21;;;;;;;10.00;4.05;;;;;;;14.01;40.75;93643.09;4982224;28;20034;-78
2023/03/27 07:42:48;;;;;;;13.38;3.83;;;;;;;13.77;40.33;93571.13;4984653;28;20795;-78
2023/03/27 07:45:15;;;;;;;6.22;3.15;;;;;;;13.81;40.95;93596.75;4964376;28;20078;-78
2023/03/27 07:47:42;;;;;;;6.55;3.47;;;;;;;12.71;40.91;93419.28;4968991;28;20411;-76
2023/03/27 07:50:10;;;;;;;7.55;3.45;;;;;;;14.21;41.67;93687.56;4962970;28;20038;-76
2023/03/27 07:52:36;;;;;;;9.35;3.60;;;;;;;14.08;42.23;93647.88;4972887;28;20642;-79
2023/03/27 07:55:02;;;;;;;4.63;3.38;;;;;;;14.27;42.32;93674.78;4960325;28;20145;-81
2023/03/27 07:57:28;;;;;;;10.77;3.80;;;;;;;14.21;42.53;93681.44;4953742;28;20046;-79
2023/03/27 07:59:54;;;;;;;8.05;4.38;;;;;;;13.62;42.72;93577.09;4971909;28;20052;-78
2023/03/27 08:02:20;;;;;;;8.23;3.72;;;;;;;14.21;43.20;93689.44;4974650;28;20411;-77
2023/03/27 08:04:45;;;;;;;7.93;3.13;;;;;;;14.41;43.41;93687.84;4976823;28;20042;-76
2023/03/27 08:07:14;;;;;;;5.40;3.67;;;;;;;14.38;42.82;93651.94;4960242;28;20038;-78
2023/03/27 08:09:41;;;;;;;7.45;4.15;;;;;;;13.57;44.45;93550.69;4959079;28;20511;-78
2023/03/27 08:12:06;;;;;;;7.63;4.47;;;;;;;13.77;45.13;93622.53;4978884;28;20046;-77
2023/03/27 08:14:32;;;;;;;8.52;4.63;;;;;;;14.24;44.34;93646.13;4977671;28;20040;-78
2023/03/27 08:16:57;;;;;;;11.15;5.55;;;;;;;13.94;43.26;93592.25;4976405;28;20034;-78
2023/03/27 08:19:24;;;;;;;7.93;4.07;;;;;;;14.49;42.75;93647.72;4974797;28;20121;-79
2023/03/27 08:21:49;;;;;;;10.98;4.03;;;;;;;14.60;43.42;93661.38;4957736;28;20513;-78
2023/03/27 08:24:15;;;;;;;14.63;4.15;;;;;;;14.51;43.45;93600.13;4959748;28;20030;-77
2023/03/27 08:26:40;;;;;;;8.40;4.32;;;;;;;14.05;43.58;93581.91;4975966;28;20526;-78
2023/03/27 08:29:06;;;;;;;16.08;5.05;;;;;;;14.10;43.96;93582.47;4977475;28;20053;-77
2023/03/27 08:31:32;;;;;;;10.38;4.00;;;;;;;13.93;44.97;93557.91;4981333;28;20512;-78
2023/03/27 08:33:57;;;;;;;6.97;4.38;;;;;;;14.04;44.74;93545.69;4980181;28;20362;-78
2023/03/27 08:36:23;;;;;;;11.20;3.42;;;;;;;14.40;44.28;93591.03;4965086;28;20042;-77
2023/03/27 08:38:48;;;;;;;10.07;3.78;;;;;;;14.28;44.05;93557.13;4975913;28;20090;-81
2023/03/27 08:41:31;;;;;;;9.02;4.00;;;;;;;14.37;45.34;93609.56;4976111;28;20038;-77
2023/03/27 08:44:00;;;;;;;10.43;3.95;;;;;;;14.17;45.06;93593.34;4959200;28;20484;-79
2023/03/27 08:46:30;;;;;;;7.07;3.97;;;;;;;14.03;45.25;93590.25;4977611;28;20057;-78
2023/03/27 08:49:16;;;;;;;16.90;5.88;;;;;;;14.26;46.17;93630.56;4961428;28;20072;-79
2023/03/27 08:51:51;;;;;;;14.38;5.32;;;;;;;14.30;44.11;93684.78;4975767;28;20038;-79
2023/03/27 08:54:21;;;;;;;13.75;4.20;;;;;;;14.30;43.67;93674.91;4980577;28;20345;-78
2023/03/27 08:56:48;;;;;;;11.23;2.93;;;;;;;13.80;41.23;93571.25;4979003;28;20034;-78
2023/03/27 08:59:16;;;;;;;7.88;4.38;;;;;;;13.98;42.92;93555.81;4984691;28;20371;-79
2023/03/27 09:01:52;;;;;;;17.00;4.50;;;;;;;14.55;42.39;93600.25;4980572;28;20127;-79
2023/03/27 09:04:55;;;;;;;10.45;3.70;;;;;;;14.10;41.42;93513.16;4981340;28;20038;-79
2023/03/27 09:07:27;;;;;;;6.85;3.00;;;;;;;14.65;42.15;93567.75;4979699;28;20457;-79
2023/03/27 09:10:14;;;;;;;15.05;3.55;;;;;;;14.79;42.38;93570.06;4987463;28;20038;-79
2023/03/27 09:13:08;;;;;;;18.70;5.25;;;;;;;14.87;40.44;93559.25;4982230;28;20058;-79
2023/03/27 09:15:44;;;;;;;16.70;4.13;;;;;;;14.44;39.37;93461.22;4983246;28;20042;-78
2023/03/27 09:18:13;;;;;;;12.82;3.88;;;;;;;14.66;39.61;93505.28;4981466;28;20034;-78
2023/03/27 09:20:48;;;;;;;12.30;4.13;;;;;;;15.53;38.93;93584.66;4985359;28;20126;-82
2023/03/27 09:23:37;;;;;;;18.25;5.70;;;;;;;15.09;37.32;93576.63;4982182;28;20133;-79
2023/03/27 09:26:32;;;;;;;10.85;3.25;;;;;;;15.11;36.78;93617.09;4977850;28;20070;-78
2023/03/27 09:29:21;;;;;;;10.73;3.88;;;;;;;15.01;38.61;93623.72;4966443;28;20045;-79
2023/03/27 09:31:53;;;;;;;5.72;2.28;;;;;;;14.74;39.92;93661.78;4979345;28;20622;-82
2023/03/27 09:34:27;;;;;;;5.35;2.53;;;;;;;13.96;42.59;93661.22;4944182;28;20442;-84
2023/03/27 09:36:57;;;;;;;4.07;2.30;;;;;;;13.16;41.91;93546.25;4960897;28;20166;-78
2023/03/27 09:39:28;;;;;;;4.75;2.00;;;;;;;13.84;41.78;93652.06;4965724;28;20226;-81
2023/03/27 09:42:15;;;;;;;3.33;2.03;;;;;;;13.33;42.75;93573.50;4976163;28;20042;-76
2023/03/27 09:44:43;;;;;;;3.92;2.25;;;;;;;13.63;42.56;93558.13;4980087;28;20034;-80
2023/03/27 09:47:20;;;;;;;5.60;2.28;;;;;;;13.96;42.59;93570.59;4980087;28;20049;-79
2023/03/27 09:49:55;;;;;;;8.55;3.00;;;;;;;14.16;42.56;93572.34;4981591;28;20505;-77
2023/03/27 09:52:38;;;;;;;4.70;2.80;;;;;;;14.68;41.09;93621.22;4984049;28;20038;-79
2023/03/27 09:55:33;;;;;;;8.68;3.13;;;;;;;14.43;41.02;93533.56;4986313;28;20033;-79
2023/03/27 09:58:14;;;;;;;7.32;2.38;;;;;;;15.10;40.81;93594.22;4977773;28;20233;-80
2023/03/27 10:00:39;;;;;;;7.00;2.73;;;;;;;14.99;41.25;93558.44;4956562;28;20096;-80
2023/03/27 10:03:12;;;;;;;8.52;2.72;;;;;;;15.29;40.94;93583.66;4962898;28;20528;-80
2023/03/27 10:05:38;;;;;;;9.23;3.05;;;;;;;15.25;40.08;93587.38;4964117;28;20038;-80
2023/03/27 10:08:30;;;;;;;5.40;3.53;;;;;;;15.14;40.14;93589.72;4980441;28;20390;-79
2023/03/27 10:10:56;;;;;;;;;;;;;;;15.35;39.81;93611.69;4977085;28;20063;-78
2023/03/27 10:13:26;;;;;;;14.60;3.55;;;;;;;15.39;40.04;93622.47;4978388;28;20437;-78
2023/03/27 10:16:08;;;;;;;19.15;4.80;;;;;;;15.16;41.27;93622.22;4979286;28;20110;-79
2023/03/27 10:18:40;;;;;;;7.15;3.15;;;;;;;14.47;41.66;93599.25;4985532;28;20064;-77
2023/03/27 10:21:10;;;;;;;6.68;2.80;;;;;;;14.10;40.75;93640.34;4956486;28;20030;-82
2023/03/27 10:23:48;;;;;;;5.18;2.60;;;;;;;13.52;41.51;93525.81;4970370;28;20805;-78
2023/03/27 10:26:26;;;;;;;5.32;2.63;;;;;;;13.73;42.92;93592.31;4978780;28;20045;-78
2023/03/27 10:28:56;;;;;;;4.30;2.78;;;;;;;13.71;47.86;93570.56;4973336;28;20057;-77
2023/03/27 10:31:31;;;;;;;4.40;2.63;;;;;;;13.71;46.65;93573.22;4971373;28;20585;-77
2023/03/27 10:34:04;;;;;;;6.80;2.22;;;;;;;13.62;45.45;93553.91;4961109;28;20048;-76
2023/03/27 10:36:36;;;;;;;6.50;3.15;;;;;;;14.02;47.27;93595.91;4957724;28;20150;-75
2023/03/27 10:39:10;;;;;;;6.15;3.40;;;;;;;14.15;45.88;93600.91;4955197;28;20127;-75
2023/03/27 10:41:37;;;;;;;5.22;3.28;;;;;;;14.33;46.45;93601.47;4976892;28;20045;-75
2023/03/27 10:44:17;;;;;;;8.25;2.70;;;;;;;14.48;45.42;93594.69;4979233;28;20034;-75
2023/03/27 10:46:44;;;;;;;4.43;2.55;;;;;;;14.39;44.24;93554.03;4973667;28;20504;-76
2023/03/27 10:49:09;;;;;;;4.90;2.60;;;;;;;14.66;43.76;93561.31;4968839;28;20539;-75
2023/03/27 10:51:50;;;;;;;9.40;2.60;;;;;;;14.70;42.70;93542.75;4980481;28;20136;-76
2023/03/27 10:54:50;;;;;;;8.60;3.13;;;;;;;14.74;43.91;93535.59;4981702;28;20457;-76
2023/03/27 10:57:29;;;;;;;6.57;2.45;;;;;;;14.81;43.01;93507.22;4975806;28;20097;-76
2023/03/27 11:00:17;;;;;;;6.85;2.40;;;;;;;14.88;42.32;93495.94;4976648;28;20042;-76
2023/03/27 11:02:56;;;;;;;5.63;2.42;;;;;;;14.74;42.20;93447.53;4978861;28;20164;-75
2023/03/27 11:05:38;;;;;;;5.40;2.92;;;;;;;15.14;41.28;93517.66;4980660;28;20049;-76
2023/03/27 11:08:14;;;;;;;7.97;4.00;;;;;;;14.99;40.46;93486.34;4981111;28;20077;-76
2023/03/27 11:10:44;;;;;;;18.63;3.85;;;;;;;14.75;41.78;93486.44;4978840;28;20042;-76
2023/03/27 11:13:17;;;;;;;10.18;4.20;;;;;;;14.48;44.98;93531.47;4971490;28;20066;-76
2023/03/27 11:15:48;;;;;;;14.45;3.92;;;;;;;14.28;46.71;93543.00;4956460;28;20555;-77
2023/03/27 11:18:36;;;;;;;11.02;3.17;;;;;;;13.23;49.48;93463.97;4973005;28;20070;-76
2023/03/27 11:21:30;;;;;;;13.73;3.25;;;;;;;13.70;50.15;93570.88;4979107;28;20034;-76
2023/03/27 11:23:59;;;;;;;11.98;3.13;;;;;;;13.16;51.34;93552.34;4960752;28;20116;-76
2023/03/27 11:26:33;;;;;;;5.15;2.15;;;;;;;13.06;52.36;93582.78;4960221;28;20117;-75
2023/03/27 11:29:04;;;;;;;6.82;2.90;;;;;;;12.81;53.65;93594.44;4961042;28;20038;-76
2023/03/27 11:31:51;;;;;;;6.13;2.85;;;;;;;12.52;54.78;93613.88;4974693;28;20544;-76
2023/03/27 11:34:45;;;;;;;11.55;3.03;;;;;;;12.27;56.05;93610.28;4946498;28;20045;-75
2023/03/27 11:37:22;;;;;;;6.47;2.75;;;;;;;11.50;57.44;93536.25;4980870;28;20054;-76
2023/03/27 11:40:08;;;;;;;9.75;3.17;;;;;;;11.92;57.91;93604.34;4978509;28;20042;-76
2023/03/27 11:42:41;;;;;;;5.30;2.50;;;;;;;11.69;59.75;93626.91;4975249;28;20457;-76
2023/03/27 11:45:11;;;;;;;4.40;2.30;;;;;;;11.51;59.99;93604.16;4977623;28;20074;-77
2023/03/27 11:47:42;;;;;;;6.38;2.33;;;;;;;11.46;61.21;93622.91;4963414;28;20022;-78
2023/03/27 11:50:17;;;;;;;7.80;2.20;;;;;;;11.36;62.47;93637.31;4972291;28;20046;-78